KHGR/HGR METAR and TAF weather

Enter ICAO airport designator
Station Type Date Time Source
KHGR METAR 2021/03/01 21:53 UTC NOAA

KHGR 012153Z 31025G31KT 10SM BKN075 08/M06 A2988 RMK AO2 PK WND 31035/2105 SLP131 T00781056


Station Type Date Time Source
KHGR Decoded METAR 2021/03/01 21:53 UTC NOAA

HAGERSTOWN REGIONAL AIRPORT, MD, United States (KHGR) 39-42N 077-44W 224M
Mar 01, 2021 - 04:53 PM EST / 2021.03.01 2153 UTC
Wind: from the NW (310 degrees) at 29 MPH (25 KT) gusting to 36 MPH (31 KT):0
Visibility: 10 mile(s):0
Sky conditions: mostly cloudy
Temperature: 46.0 F (7.8 C)
Dew Point: 21.9 F (-5.6 C)
Relative Humidity: 38%
Pressure (altimeter): 29.88 in. Hg (1011 hPa)
ob: KHGR 012153Z 31025G31KT 10SM BKN075 08/M06 A2988 RMK AO2 PK WND 31035/2105 SLP131 T00781056
cycle: 22

Station Type Date Time Source
KHGR TAF UTC NOAA

Error!

Example: see airport list